Time;durP1;ratioP1;P1;durP2;ratioP2;P2;SDS_P1;SDS_P2;PMS_P1;PMS_P2;Temp;Humidity;BMP_temperature;BMP_pressure;BME280_temperature;BME280_humidity;BME280_pressure;Samples;Min_cycle;Max_cycle;Signal;HPM_P1;HPM_P2
2022/12/29 00:00:07;;;;;;;;;;;;;;;5.08;83.75;96119.94;5096006;28;1023;-48
2022/12/29 00:02:33;;;;;;;;;;;;;;;5.08;83.92;96120.81;5095680;28;1071;-48
2022/12/29 00:04:59;;;;;;;;;;;;;;;5.11;84.06;96110.97;5096029;28;965;-48
2022/12/29 00:07:25;;;;;;;;;;;;;;;5.05;84.12;96112.22;5095889;28;976;-48
2022/12/29 00:09:51;;;;;;;;;;;;;;;4.97;83.93;96114.53;5095904;28;1020;-48
2022/12/29 00:12:17;;;;;;;;;;;;;;;5.01;84.15;96114.22;5094502;28;1910;-49
2022/12/29 00:17:28;;;;;;;;;;;;;;;5.02;83.74;96115.91;5095529;28;1016;-48
2022/12/29 00:36:25;;;;;;;;;;;;;;;4.67;84.10;96123.59;5095127;28;1194;-48
2022/12/29 00:44:24;;;;;;;;;;;;;;;4.25;84.53;96136.88;5095053;28;1004;-48
2022/12/29 00:46:50;;;;;;;;;;;;;;;4.22;84.64;96141.50;5094671;28;1099;-48
2022/12/29 00:49:31;;;;;;;;;;;;;;;4.15;84.81;96140.19;5079435;28;1188;-48
2022/12/29 00:52:02;;;;;;;;;;;;;;;3.93;84.58;96136.25;5074792;28;968;-48
2022/12/29 00:54:30;;;;;;;;;;;;;;;3.71;84.83;96144.66;5074539;28;1910;-48
2022/12/29 00:56:56;;;;;;;;;;;;;;;3.64;85.68;96144.22;5073311;28;978;-48
2022/12/29 00:59:23;;;;;;;;;;;;;;;3.77;85.12;96146.09;5074651;28;1213;-48
2022/12/29 01:01:50;;;;;;;;;;;;;;;3.73;84.96;96148.06;5074403;28;1063;-48
2022/12/29 01:04:16;;;;;;;;;;;;;;;3.66;85.21;96150.25;5074559;28;1049;-48
2022/12/29 01:06:42;;;;;;;;;;;;;;;3.75;85.08;96147.97;5074400;28;1011;-48
2022/12/29 01:11:54;;;;;;;;;;;;;;;3.72;84.38;96152.53;5074186;28;1084;-48
2022/12/29 01:14:20;;;;;;;;;;;;;;;3.42;84.88;96139.38;5074082;28;1914;-48
2022/12/29 01:16:46;;;;;;;;;;;;;;;3.26;85.51;96143.88;5074350;28;1019;-48
2022/12/29 01:19:13;;;;;;;;;;;;;;;3.26;85.86;96142.13;5074237;28;1029;-48
2022/12/29 01:21:39;;;;;;;;;;;;;;;3.22;85.27;96151.13;5073903;28;1517;-48
2022/12/29 01:24:05;;;;;;;;;;;;;;;3.18;85.42;96149.63;5074012;28;1011;-48
2022/12/29 01:26:31;;;;;;;;;;;;;;;3.17;85.06;96150.59;5073900;28;1174;-48
2022/12/29 01:28:57;;;;;;;;;;;;;;;3.06;85.17;96134.50;5074067;28;965;-48
2022/12/29 01:31:23;;;;;;;;;;;;;;;2.96;86.41;96128.94;5073797;28;1011;-48
2022/12/29 01:33:49;;;;;;;;;;;;;;;3.12;86.32;96126.22;5072777;28;1902;-48
2022/12/29 01:36:16;;;;;;;;;;;;;;;3.20;85.55;96128.41;5073863;28;1004;-48
2022/12/29 01:38:42;;;;;;;;;;;;;;;3.20;85.61;96117.81;5073760;28;962;-48
2022/12/29 01:41:09;;;;;;;;;;;;;;;3.08;84.44;96127.34;5074028;28;1041;-48
2022/12/29 01:43:43;;;;;;;;;;;;;;;2.88;84.71;96123.22;5073861;28;1004;-48
2022/12/29 01:46:27;;;;;;;;;;;;;;;2.82;84.52;96123.59;5073848;28;1015;-48
2022/12/29 01:48:57;;;;;;;;;;;;;;;2.50;85.75;96116.63;5085788;28;1142;-48
2022/12/29 01:51:25;;;;;;;;;;;;;;;2.43;86.50;96112.63;5093818;28;1236;-48
2022/12/29 01:53:52;;;;;;;;;;;;;;;2.59;86.51;96115.22;5094016;28;1906;-48
2022/12/29 01:56:20;;;;;;;;;;;;;;;2.78;86.17;96111.50;5093887;28;967;-48
2022/12/29 01:58:48;;;;;;;;;;;;;;;2.80;86.05;96118.41;5093133;28;1067;-48
2022/12/29 02:01:16;;;;;;;;;;;;;;;2.87;85.89;96118.91;5093844;28;1041;-49
2022/12/29 02:03:42;;;;;;;;;;;;;;;2.88;85.62;96110.91;5092734;28;1924;-50
2022/12/29 02:06:13;;;;;;;;;;;;;;;2.86;85.34;96117.19;5093662;28;1048;-50
2022/12/29 02:08:39;;;;;;;;;;;;;;;2.84;85.23;96111.16;5094066;28;970;-50
2022/12/29 02:11:06;;;;;;;;;;;;;;;2.56;85.09;96106.63;5093635;28;1020;-50
2022/12/29 02:13:32;;;;;;;;;;;;;;;2.44;86.56;96108.19;5093588;28;1996;-50
2022/12/29 02:16:01;;;;;;;;;;;;;;;2.56;86.89;96096.91;5093555;28;1008;-50
2022/12/29 02:18:35;;;;;;;;;;;;;;;2.69;86.75;96104.97;5093421;28;1044;-50
2022/12/29 02:21:24;;;;;;;;;;;;;;;2.78;86.37;96108.88;5093524;28;1116;-50
2022/12/29 02:23:59;;;;;;;;;;;;;;;2.97;86.86;96117.41;5064769;28;1158;-50
2022/12/29 02:26:44;;;;;;;;;;;;;;;2.84;86.46;96113.78;5093458;28;976;-50
2022/12/29 02:29:46;;;;;;;;;;;;;;;2.68;87.25;96103.28;5093463;28;964;-50
2022/12/29 02:32:26;;;;;;;;;;;;;;;2.70;87.99;96089.03;5030943;28;1204;-50
2022/12/29 02:35:08;;;;;;;;;;;;;;;2.93;87.27;96087.66;5087158;28;1393;-50
2022/12/29 02:37:37;;;;;;;;;;;;;;;3.16;86.71;96084.59;5093609;28;1011;-50
2022/12/29 02:40:27;;;;;;;;;;;;;;;3.24;86.55;96085.81;5093571;28;1019;-50
2022/12/29 02:42:53;;;;;;;;;;;;;;;3.05;85.87;96077.31;5085797;28;1266;-50
2022/12/29 02:45:22;;;;;;;;;;;;;;;3.10;86.03;96075.25;5093140;28;980;-49
2022/12/29 02:48:00;;;;;;;;;;;;;;;3.05;86.06;96079.94;5090148;28;1216;-50
2022/12/29 02:50:32;;;;;;;;;;;;;;;3.03;86.13;96089.78;5073266;28;1024;-50
2022/12/29 02:53:00;;;;;;;;;;;;;;;2.99;86.43;96085.63;5073120;28;1910;-50
2022/12/29 02:55:26;;;;;;;;;;;;;;;2.85;86.37;96089.09;5072943;28;1075;-50
2022/12/29 02:58:24;;;;;;;;;;;;;;;2.64;87.62;96081.47;5073024;28;1293;-50
2022/12/29 03:01:06;;;;;;;;;;;;;;;2.62;88.16;96080.72;5050062;28;1333;-50
2022/12/29 03:03:51;;;;;;;;;;;;;;;2.69;87.66;96089.13;5073039;28;1042;-50
2022/12/29 03:06:51;;;;;;;;;;;;;;;2.68;87.13;96077.72;5073013;28;999;-50
2022/12/29 03:09:25;;;;;;;;;;;;;;;2.58;86.84;96079.22;5051464;28;1260;-50
2022/12/29 03:12:07;;;;;;;;;;;;;;;2.46;87.27;96071.97;5076625;28;926;-50
2022/12/29 03:17:29;;;;;;;;;;;;;;;2.35;87.27;96088.44;5076372;28;1001;-50
2022/12/29 03:20:01;;;;;;;;;;;;;;;2.33;86.73;96087.66;5076258;28;1247;-50
2022/12/29 03:22:32;;;;;;;;;;;;;;;2.12;87.47;96087.94;5076256;28;1003;-50
2022/12/29 03:25:03;;;;;;;;;;;;;;;2.24;87.25;96091.72;5076459;28;966;-49
2022/12/29 03:27:32;;;;;;;;;;;;;;;2.40;87.57;96091.66;5076218;28;977;-50
2022/12/29 03:30:01;;;;;;;;;;;;;;;2.50;87.37;96087.56;5076494;28;980;-50
2022/12/29 03:32:31;;;;;;;;;;;;;;;2.52;86.87;96076.91;5075996;28;1988;-50
2022/12/29 03:34:58;;;;;;;;;;;;;;;2.59;87.24;96087.97;5076114;28;1118;-49
2022/12/29 03:37:28;;;;;;;;;;;;;;;2.43;86.05;96093.28;5075998;28;1035;-50
2022/12/29 03:39:54;;;;;;;;;;;;;;;2.24;87.10;96091.72;5076110;28;1086;-50
2022/12/29 03:42:23;;;;;;;;;;;;;;;2.27;87.47;96091.50;5075915;28;979;-50
2022/12/29 03:44:52;;;;;;;;;;;;;;;2.25;87.65;96089.91;5076154;28;1037;-50
2022/12/29 03:47:18;;;;;;;;;;;;;;;2.34;87.92;96089.38;5075839;28;1023;-50
2022/12/29 03:49:44;;;;;;;;;;;;;;;2.52;87.69;96093.63;5095199;28;1169;-50
2022/12/29 03:52:10;;;;;;;;;;;;;;;2.76;87.82;96094.91;5096160;28;1017;-50
2022/12/29 03:54:37;;;;;;;;;;;;;;;2.99;87.58;96094.38;5095888;28;1983;-50
2022/12/29 03:57:03;;;;;;;;;;;;;;;3.17;87.40;96092.44;5096191;28;1042;-50
2022/12/29 03:59:29;;;;;;;;;;;;;;;3.08;86.97;96103.56;5096065;28;1029;-50
2022/12/29 04:01:55;;;;;;;;;;;;;;;3.03;87.23;96102.97;5096111;28;1029;-50
2022/12/29 04:04:21;;;;;;;;;;;;;;;2.96;87.29;96099.88;5095939;28;1259;-50
2022/12/29 04:06:47;;;;;;;;;;;;;;;2.84;88.10;96098.78;5095785;28;1067;-50
2022/12/29 04:09:13;;;;;;;;;;;;;;;3.02;87.78;96106.59;5095730;28;1016;-50
2022/12/29 04:11:39;;;;;;;;;;;;;;;3.05;88.13;96109.03;5095541;28;1087;-50
2022/12/29 04:14:05;;;;;;;;;;;;;;;3.05;89.54;96099.28;5095794;28;2004;-50
2022/12/29 04:16:31;;;;;;;;;;;;;;;3.20;89.26;96100.16;5095524;28;1063;-50
2022/12/29 04:18:57;;;;;;;;;;;;;;;3.23;88.42;96097.34;5095711;28;1218;-50
2022/12/29 04:21:23;;;;;;;;;;;;;;;3.36;87.89;96096.59;5077520;28;1487;-50
2022/12/29 04:23:49;;;;;;;;;;;;;;;3.37;87.61;96100.94;5075135;28;1095;-50
2022/12/29 04:26:15;;;;;;;;;;;;;;;3.39;87.92;96102.53;5075443;28;951;-50
2022/12/29 04:28:41;;;;;;;;;;;;;;;3.39;88.00;96107.81;5075061;28;1032;-50
2022/12/29 04:31:07;;;;;;;;;;;;;;;3.40;87.97;96106.91;5075110;28;1023;-50
2022/12/29 04:33:33;;;;;;;;;;;;;;;3.37;88.35;96111.53;5074981;28;1956;-50
2022/12/29 04:35:59;;;;;;;;;;;;;;;3.38;88.20;96111.44;5073833;28;1087;-50
2022/12/29 04:38:25;;;;;;;;;;;;;;;3.40;88.05;96119.28;5074920;28;1322;-50
2022/12/29 04:40:51;;;;;;;;;;;;;;;3.46;88.19;96129.47;5074880;28;1004;-50
2022/12/29 04:43:22;;;;;;;;;;;;;;;3.33;88.30;96116.97;5075010;28;1022;-50
2022/12/29 04:45:48;;;;;;;;;;;;;;;3.32;88.38;96110.00;5074974;28;966;-50
2022/12/29 04:48:14;;;;;;;;;;;;;;;3.37;88.60;96109.72;5067103;28;1162;-50
2022/12/29 04:50:41;;;;;;;;;;;;;;;3.48;88.07;96109.91;5054552;28;893;-50
2022/12/29 04:53:07;;;;;;;;;;;;;;;3.52;88.71;96118.50;5054532;28;1914;-50
2022/12/29 04:55:33;;;;;;;;;;;;;;;3.58;88.45;96119.94;5054546;28;1041;-50
2022/12/29 04:57:59;;;;;;;;;;;;;;;3.63;88.30;96118.69;5054827;28;1048;-50
2022/12/29 05:00:25;;;;;;;;;;;;;;;3.67;88.12;96119.34;5054649;28;969;-50
2022/12/29 05:02:51;;;;;;;;;;;;;;;3.70;88.07;96127.97;5054617;28;970;-50
2022/12/29 05:05:17;;;;;;;;;;;;;;;3.70;88.28;96127.13;5054569;28;1209;-50
2022/12/29 05:07:43;;;;;;;;;;;;;;;3.68;87.88;96127.22;5054379;28;1036;-50
2022/12/29 05:10:10;;;;;;;;;;;;;;;3.63;88.22;96121.34;5054335;28;1037;-50
2022/12/29 05:12:37;;;;;;;;;;;;;;;3.62;88.56;96127.56;5054388;28;1988;-50
2022/12/29 05:15:03;;;;;;;;;;;;;;;3.71;88.29;96134.09;5054405;28;1004;-50
2022/12/29 05:17:30;;;;;;;;;;;;;;;3.78;87.98;96124.00;5054301;28;1007;-50
2022/12/29 05:19:56;;;;;;;;;;;;;;;3.84;87.82;96136.84;5054063;28;1113;-50
2022/12/29 05:22:22;;;;;;;;;;;;;;;3.89;87.83;96129.47;5053961;28;1087;-50
2022/12/29 05:24:48;;;;;;;;;;;;;;;3.83;88.45;96128.06;5054014;28;969;-50
2022/12/29 05:27:14;;;;;;;;;;;;;;;3.76;89.03;96134.66;5054257;28;1040;-49
2022/12/29 05:29:40;;;;;;;;;;;;;;;3.61;88.75;96132.97;5053937;28;1843;-50
2022/12/29 05:32:06;;;;;;;;;;;;;;;3.66;88.58;96142.31;5053706;28;1034;-50
2022/12/29 05:34:32;;;;;;;;;;;;;;;3.68;88.79;96134.28;5053342;28;1995;-50
2022/12/29 05:36:58;;;;;;;;;;;;;;;3.76;88.74;96137.31;5053880;28;1025;-50
2022/12/29 05:39:24;;;;;;;;;;;;;;;3.70;88.87;96137.69;5053695;28;956;-50
2022/12/29 05:41:50;;;;;;;;;;;;;;;3.75;88.99;96135.59;5054054;28;967;-50
2022/12/29 05:44:16;;;;;;;;;;;;;;;3.79;89.18;96137.09;5053897;28;1022;-50
2022/12/29 05:46:42;;;;;;;;;;;;;;;3.86;88.68;96140.22;5053796;28;1014;-50
2022/12/29 05:49:08;;;;;;;;;;;;;;;3.89;88.93;96140.06;5081858;28;1225;-50
2022/12/29 05:51:34;;;;;;;;;;;;;;;3.88;88.49;96139.19;5093739;28;1004;-50
2022/12/29 05:54:00;;;;;;;;;;;;;;;3.89;88.45;96132.94;5093702;28;1910;-50
2022/12/29 05:56:26;;;;;;;;;;;;;;;3.92;88.23;96132.75;5093681;28;1259;-50
2022/12/29 05:58:53;;;;;;;;;;;;;;;3.98;88.28;96142.09;5093888;28;1040;-50
2022/12/29 06:01:19;;;;;;;;;;;;;;;3.97;88.25;96140.41;5093827;28;961;-50
2022/12/29 06:03:45;;;;;;;;;;;;;;;3.94;88.54;96147.69;5092620;28;1047;-50
2022/12/29 06:06:11;;;;;;;;;;;;;;;3.99;88.56;96137.66;5093738;28;1020;-50
2022/12/29 06:08:37;;;;;;;;;;;;;;;4.02;88.74;96138.34;5093494;28;1059;-50
2022/12/29 06:11:03;;;;;;;;;;;;;;;4.09;88.45;96138.78;5093878;28;988;-49
2022/12/29 06:13:29;;;;;;;;;;;;;;;4.16;88.14;96145.38;5093411;28;2371;-50
2022/12/29 06:15:55;;;;;;;;;;;;;;;4.19;88.02;96139.91;5093740;28;1039;-50
2022/12/29 06:18:21;;;;;;;;;;;;;;;4.19;88.50;96149.63;5093641;28;1165;-50
2022/12/29 06:20:47;;;;;;;;;;;;;;;4.17;88.34;96148.88;5093360;28;1869;-50
2022/12/29 06:23:13;;;;;;;;;;;;;;;4.16;88.61;96149.84;5093430;28;1022;-50
2022/12/29 06:25:40;;;;;;;;;;;;;;;4.22;88.47;96154.75;5093382;28;1020;-50
2022/12/29 06:28:06;;;;;;;;;;;;;;;4.25;88.57;96160.69;5093685;28;973;-50
2022/12/29 06:30:32;;;;;;;;;;;;;;;4.28;88.20;96162.28;5093353;28;1063;-50
2022/12/29 06:32:59;;;;;;;;;;;;;;;4.25;88.46;96165.13;5093338;28;1987;-50
2022/12/29 06:35:25;;;;;;;;;;;;;;;4.25;88.98;96167.75;5093330;28;973;-50
2022/12/29 06:37:51;;;;;;;;;;;;;;;4.30;88.50;96173.63;5093306;28;1485;-50
2022/12/29 06:40:17;;;;;;;;;;;;;;;4.27;88.99;96169.38;5093476;28;991;-50
2022/12/29 06:42:44;;;;;;;;;;;;;;;4.33;88.88;96178.72;5093322;28;1073;-50
2022/12/29 06:45:10;;;;;;;;;;;;;;;4.32;88.74;96174.38;5095901;28;1952;-49
2022/12/29 06:47:36;;;;;;;;;;;;;;;4.39;88.94;96175.69;5095994;28;1354;-50
2022/12/29 06:50:02;;;;;;;;;;;;;;;4.38;88.73;96174.00;5076966;28;1023;-50
2022/12/29 06:52:28;;;;;;;;;;;;;;;4.27;89.27;96169.38;5076839;28;967;-50
2022/12/29 06:54:54;;;;;;;;;;;;;;;4.32;88.65;96176.19;5077086;28;1910;-50
2022/12/29 06:57:21;;;;;;;;;;;;;;;4.23;89.23;96178.47;5076988;28;1024;-50
2022/12/29 06:59:47;;;;;;;;;;;;;;;4.32;89.33;96184.13;5076784;28;1094;-50
2022/12/29 07:02:19;;;;;;;;;;;;;;;4.36;88.94;96189.13;5076926;28;994;-50
2022/12/29 07:04:45;;;;;;;;;;;;;;;4.40;88.81;96192.41;5076740;28;1074;-50
2022/12/29 07:07:11;;;;;;;;;;;;;;;4.50;88.39;96197.03;5076550;28;1154;-50
2022/12/29 07:09:37;;;;;;;;;;;;;;;4.62;87.98;96198.03;5076721;28;1043;-50
2022/12/29 07:12:03;;;;;;;;;;;;;;;4.68;87.30;96197.63;5076799;28;1328;-50
2022/12/29 07:14:29;;;;;;;;;;;;;;;4.73;87.18;96202.66;5076333;28;1985;-49
2022/12/29 07:16:55;;;;;;;;;;;;;;;4.74;87.07;96201.69;5076607;28;1048;-50
2022/12/29 07:19:21;;;;;;;;;;;;;;;4.80;86.61;96201.31;5076400;28;1057;-49
2022/12/29 07:21:47;;;;;;;;;;;;;;;4.83;86.59;96206.38;5076188;28;1247;-50
2022/12/29 07:24:13;;;;;;;;;;;;;;;4.97;85.93;96199.34;5076331;28;1078;-50
2022/12/29 07:26:41;;;;;;;;;;;;;;;5.13;85.02;96202.69;5075011;28;1028;-50
2022/12/29 07:29:07;;;;;;;;;;;;;;;5.04;84.93;96206.78;5076269;28;1095;-50
2022/12/29 07:31:33;;;;;;;;;;;;;;;4.96;85.22;96202.97;5076232;28;1053;-50
2022/12/29 07:33:59;;;;;;;;;;;;;;;4.85;85.60;96201.84;5076089;28;1906;-50
2022/12/29 07:36:25;;;;;;;;;;;;;;;4.89;86.80;96203.38;5075989;28;1060;-50
2022/12/29 07:42:50;;;;;;;;;;;;;;;5.59;84.02;96212.00;5053382;28;1368;-50
2022/12/29 07:45:16;;;;;;;;;;;;;;;5.87;83.29;96218.91;5056143;28;1068;-51
2022/12/29 07:47:42;;;;;;;;;;;;;;;6.15;81.34;96211.72;5058102;28;1084;-51
2022/12/29 07:50:08;;;;;;;;;;;;;;;6.48;79.64;96207.63;5075911;28;2056;-51
2022/12/29 07:52:34;;;;;;;;;;;;;;;6.62;78.78;96204.78;5075764;28;1910;-50
2022/12/29 07:55:00;;;;;;;;;;;;;;;6.73;78.00;96212.00;5075897;28;1058;-50
2022/12/29 07:57:26;;;;;;;;;;;;;;;6.72;76.33;96205.00;5057154;28;1027;-50
2022/12/29 07:59:52;;;;;;;;;;;;;;;6.87;76.19;96208.34;5075875;28;1028;-49
2022/12/29 08:02:18;;;;;;;;;;;;;;;6.89;76.72;96209.94;5075564;28;1070;-50
2022/12/29 08:04:44;;;;;;;;;;;;;;;6.75;76.61;96205.59;5066282;28;1135;-50
2022/12/29 08:07:10;;;;;;;;;;;;;;;6.78;76.86;96207.22;5037829;28;1029;-50
2022/12/29 08:09:37;;;;;;;;;;;;;;;6.94;76.19;96212.25;5037745;28;1036;-50
2022/12/29 08:12:03;;;;;;;;;;;;;;;6.95;76.27;96213.94;5055409;28;1265;-50
2022/12/29 08:14:30;;;;;;;;;;;;;;;6.80;76.03;96215.91;5055272;28;1981;-50
2022/12/29 08:16:56;;;;;;;;;;;;;;;6.98;75.69;96219.03;5055503;28;1020;-50
2022/12/29 08:19:22;;;;;;;;;;;;;;;6.99;73.85;96218.91;5037590;28;1190;-50
2022/12/29 08:21:49;;;;;;;;;;;;;;;7.03;75.05;96222.22;5037558;28;1040;-50
2022/12/29 08:24:15;;;;;;;;;;;;;;;7.08;74.46;96214.75;5055513;28;1212;-50
2022/12/29 08:26:41;;;;;;;;;;;;;;;7.34;74.18;96211.94;5055093;28;1033;-50
2022/12/29 08:29:07;;;;;;;;;;;;;;;7.31;74.26;96214.84;5055336;28;1186;-50
2022/12/29 08:31:33;;;;;;;;;;;;;;;7.40;74.40;96216.81;5055165;28;970;-50
2022/12/29 08:34:01;;;;;;;;;;;;;;;7.56;73.88;96217.34;5037015;28;1911;-50
2022/12/29 08:36:27;;;;;;;;;;;;;;;7.77;72.18;96216.66;5054876;28;1078;-50
2022/12/29 08:38:53;;;;;;;;;;;;;;;7.85;71.94;96216.91;5055244;28;1015;-50
2022/12/29 08:41:19;;;;;;;;;;;;;;;7.93;71.54;96205.66;5037257;28;1138;-49
2022/12/29 08:43:47;;;;;;;;;;;;;;;7.82;72.70;96210.03;5055022;28;1004;-48
2022/12/29 08:46:13;;;;;;;;;;;;;;;7.88;72.33;96199.88;5054778;28;1016;-48
2022/12/29 08:48:39;;;;;;;;;;;;;;;7.92;72.24;96204.84;5064644;28;1170;-48
2022/12/29 08:51:05;;;;;;;;;;;;;;;8.11;71.62;96198.06;5074753;28;1030;-48
2022/12/29 08:53:31;;;;;;;;;;;;;;;8.33;71.16;96189.25;5074510;28;1886;-48
2022/12/29 08:55:58;;;;;;;;;;;;;;;8.61;69.42;96195.91;5074787;28;1034;-48
2022/12/29 08:58:25;;;;;;;;;;;;;;;8.72;68.04;96187.03;5074437;28;1071;-48
2022/12/29 09:00:54;;;;;;;;;;;;;;;9.02;67.83;96182.84;5074572;28;1285;-48
2022/12/29 09:03:21;;;;;;;;;;;;;;;9.28;67.16;96188.69;5074416;28;1037;-48
2022/12/29 09:05:51;;;;;;;;;;;;;;;9.44;66.18;96178.41;5074341;28;1007;-48
2022/12/29 09:08:18;;;;;;;;;;;;;;;9.73;64.71;96180.44;5074117;28;1066;-49
2022/12/29 09:10:44;;;;;;;;;;;;;;;9.97;64.71;96180.16;5074447;28;1007;-48
2022/12/29 09:13:11;;;;;;;;;;;;;;;10.10;63.55;96174.63;5074243;28;1905;-49
2022/12/29 09:15:37;;;;;;;;;;;;;;;10.12;63.35;96169.97;5074261;28;957;-47
2022/12/29 09:18:04;;;;;;;;;;;;;;;10.28;63.98;96175.69;5074210;28;1036;-49
2022/12/29 09:20:30;;;;;;;;;;;;;;;10.55;62.96;96163.59;5074033;28;968;-48
2022/12/29 09:22:56;;;;;;;;;;;;;;;10.60;62.52;96169.34;5074314;28;1034;-49
2022/12/29 09:25:24;;;;;;;;;;;;;;;10.85;63.05;96160.00;5074118;28;968;-49
2022/12/29 09:27:52;;;;;;;;;;;;;;;10.91;62.51;96167.47;5074001;28;1187;-49
2022/12/29 09:30:19;;;;;;;;;;;;;;;11.12;60.74;96162.00;5073913;28;1018;-49
2022/12/29 09:32:45;;;;;;;;;;;;;;;11.50;60.05;96168.34;5073933;28;1906;-49
2022/12/29 09:35:12;;;;;;;;;;;;;;;11.72;58.60;96164.53;5073908;28;1005;-49
2022/12/29 09:37:38;;;;;;;;;;;;;;;11.73;58.38;96160.84;5073756;28;1051;-49
2022/12/29 09:40:05;;;;;;;;;;;;;;;11.62;58.50;96158.31;5073776;28;1102;-49
2022/12/29 09:42:49;;;;;;;;;;;;;;;11.97;58.25;96154.19;5073581;28;1231;-49
2022/12/29 09:45:24;;;;;;;;;;;;;;;12.09;57.78;96153.03;5073570;28;1007;-49
2022/12/29 09:47:52;;;;;;;;;;;;;;;11.99;56.96;96151.34;5069986;28;1493;-49
2022/12/29 09:50:25;;;;;;;;;;;;;;;12.10;57.74;96145.81;5035833;28;1089;-49
2022/12/29 09:52:58;;;;;;;;;;;;;;;12.26;57.94;96135.31;5053412;28;1902;-49
2022/12/29 09:55:37;;;;;;;;;;;;;;;12.52;56.15;96142.69;5053478;28;1008;-49
2022/12/29 09:58:17;;;;;;;;;;;;;;;12.58;56.04;96143.94;5053391;28;1042;-49
2022/12/29 10:01:04;;;;;;;;;;;;;;;12.45;56.54;96139.75;5036306;28;1663;-49
2022/12/29 10:03:45;;;;;;;;;;;;;;;12.48;56.66;96130.56;5053533;28;1019;-49
2022/12/29 10:06:19;;;;;;;;;;;;;;;12.70;55.82;96123.94;5053328;28;1020;-49
2022/12/29 10:08:54;;;;;;;;;;;;;;;12.88;55.51;96114.09;5035622;28;1248;-49
2022/12/29 10:11:40;;;;;;;;;;;;;;;13.09;55.86;96099.53;5053216;28;1013;-49
2022/12/29 10:14:11;;;;;;;;;;;;;;;13.51;55.04;96111.47;5053160;28;1906;-49
2022/12/29 10:16:41;;;;;;;;;;;;;;;13.53;54.17;96114.88;5053318;28;962;-49
2022/12/29 10:19:16;;;;;;;;;;;;;;;13.75;54.63;96108.97;5052997;28;2220;-49
2022/12/29 10:21:49;;;;;;;;;;;;;;;13.50;53.76;96104.44;5053117;28;1092;-49
2022/12/29 10:24:16;;;;;;;;;;;;;;;13.63;53.60;96107.56;5053222;28;974;-49
2022/12/29 10:26:44;;;;;;;;;;;;;;;13.89;53.66;96099.50;5053050;28;1072;-49
2022/12/29 10:29:12;;;;;;;;;;;;;;;14.01;53.49;96102.78;5035538;28;1099;-49
2022/12/29 10:31:38;;;;;;;;;;;;;;;14.19;53.14;96089.25;5053087;28;1270;-50
2022/12/29 10:34:33;;;;;;;;;;;;;;;14.31;52.41;96093.34;5035432;28;1993;-49
2022/12/29 10:37:05;;;;;;;;;;;;;;;14.08;53.55;96081.47;5051016;28;1401;-49
2022/12/29 10:39:31;;;;;;;;;;;;;;;14.33;52.46;96079.75;5053182;28;1004;-49
2022/12/29 10:42:04;;;;;;;;;;;;;;;14.35;52.29;96081.25;5052866;28;1204;-49
2022/12/29 10:44:33;;;;;;;;;;;;;;;14.61;52.38;96085.78;5052861;28;1087;-49
2022/12/29 10:47:07;;;;;;;;;;;;;;;14.37;53.08;96076.56;5052689;28;1157;-49
2022/12/29 10:49:39;;;;;;;;;;;;;;;14.45;52.77;96073.91;5052922;28;1702;-49
2022/12/29 10:52:06;;;;;;;;;;;;;;;14.62;52.43;96080.19;5039051;28;996;-50
2022/12/29 10:55:02;;;;;;;;;;;;;;;14.49;51.90;96077.09;5055114;28;1991;-49
2022/12/29 10:57:31;;;;;;;;;;;;;;;14.58;53.18;96073.47;5043087;28;1216;-49
2022/12/29 10:59:59;;;;;;;;;;;;;;;14.68;52.25;96076.00;5073034;28;1075;-49
2022/12/29 11:02:30;;;;;;;;;;;;;;;14.49;53.11;96068.19;5038888;28;1489;-50
2022/12/29 11:05:08;;;;;;;;;;;;;;;14.33;52.29;96067.13;5072883;28;1024;-49
2022/12/29 11:07:36;;;;;;;;;;;;;;;14.47;53.04;96062.13;5072941;28;1042;-50
2022/12/29 11:10:19;;;;;;;;;;;;;;;14.56;52.39;96058.47;5072848;28;1056;-50
2022/12/29 11:12:57;;;;;;;;;;;;;;;14.76;52.50;96051.81;5072864;28;1883;-49
2022/12/29 11:15:23;;;;;;;;;;;;;;;14.20;53.26;96053.28;5072745;28;1022;-50
2022/12/29 11:17:51;;;;;;;;;;;;;;;14.12;53.67;96043.34;5072808;28;1191;-50
2022/12/29 11:20:26;;;;;;;;;;;;;;;14.55;52.96;96041.47;5072883;28;1186;-50
2022/12/29 11:22:52;;;;;;;;;;;;;;;14.74;53.21;96039.50;5072877;28;1036;-50
2022/12/29 11:25:18;;;;;;;;;;;;;;;14.98;51.33;96042.25;5054723;28;1024;-50
2022/12/29 11:28:02;;;;;;;;;;;;;;;14.95;52.31;96039.91;5054902;28;975;-50
2022/12/29 11:30:29;;;;;;;;;;;;;;;14.55;51.63;96030.72;5072548;28;1940;-50
2022/12/29 11:32:57;;;;;;;;;;;;;;;14.24;52.36;96028.56;5058218;28;1910;-50
2022/12/29 11:35:32;;;;;;;;;;;;;;;14.44;52.04;96025.63;5076091;28;1119;-50
2022/12/29 11:37:58;;;;;;;;;;;;;;;14.78;52.48;96027.44;5076149;28;1035;-50
2022/12/29 11:40:25;;;;;;;;;;;;;;;14.69;51.64;96028.44;5076136;28;955;-50
2022/12/29 11:42:53;;;;;;;;;;;;;;;14.33;53.11;96024.09;5075589;28;1207;-50
2022/12/29 11:45:21;;;;;;;;;;;;;;;14.33;52.22;96017.88;5075903;28;1027;-50
2022/12/29 11:47:49;;;;;;;;;;;;;;;14.09;52.88;96015.91;5055384;28;1102;-50
2022/12/29 11:50:21;;;;;;;;;;;;;;;14.12;52.88;96015.63;5055949;28;976;-50
2022/12/29 11:52:49;;;;;;;;;;;;;;;14.25;52.62;96008.75;5055801;28;1906;-50
2022/12/29 11:55:20;;;;;;;;;;;;;;;14.47;51.87;96009.16;5055749;28;1033;-49
2022/12/29 11:57:46;;;;;;;;;;;;;;;14.30;52.90;96007.41;5055661;28;1277;-50
2022/12/29 12:00:20;;;;;;;;;;;;;;;14.30;52.48;96007.41;5055789;28;971;-50
2022/12/29 12:02:57;;;;;;;;;;;;;;;14.47;53.35;96005.63;5055786;28;1031;-50
2022/12/29 12:05:41;;;;;;;;;;;;;;;14.71;52.70;96010.25;5055392;28;1020;-50
2022/12/29 12:08:26;;;;;;;;;;;;;;;14.73;52.12;96002.84;5055713;28;1030;-50
2022/12/29 12:10:58;;;;;;;;;;;;;;;14.82;52.43;95997.31;5055547;28;954;-50
2022/12/29 12:13:24;;;;;;;;;;;;;;;14.45;51.55;96000.41;5055242;28;1914;-50
2022/12/29 12:16:04;;;;;;;;;;;;;;;14.00;52.60;95997.06;5055380;28;1044;-50
2022/12/29 12:18:30;;;;;;;;;;;;;;;14.02;52.79;95984.31;5055477;28;1036;-50
2022/12/29 12:20:58;;;;;;;;;;;;;;;14.01;53.06;95985.28;5055283;28;1052;-50
2022/12/29 12:23:36;;;;;;;;;;;;;;;14.21;53.51;95982.38;5055060;28;1032;-50
2022/12/29 12:26:09;;;;;;;;;;;;;;;14.21;52.86;95985.06;5037575;28;1054;-50
2022/12/29 12:28:54;;;;;;;;;;;;;;;14.02;53.38;95983.47;5055035;28;942;-49
2022/12/29 12:31:26;;;;;;;;;;;;;;;13.75;54.40;95977.28;5055011;28;1016;-50
2022/12/29 12:34:02;;;;;;;;;;;;;;;13.60;54.39;95981.56;5055033;28;1910;-50
2022/12/29 12:36:46;;;;;;;;;;;;;;;13.50;55.66;95970.94;5054876;28;1020;-50
2022/12/29 12:39:22;;;;;;;;;;;;;;;13.47;56.39;95973.97;5054917;28;1087;-50
2022/12/29 12:42:07;;;;;;;;;;;;;;;13.36;56.58;95974.22;5054207;28;1110;-50
2022/12/29 12:44:52;;;;;;;;;;;;;;;13.23;57.65;95974.63;5054869;28;979;-50
2022/12/29 12:47:27;;;;;;;;;;;;;;;13.18;57.56;95976.91;5054627;28;1102;-50
2022/12/29 12:50:05;;;;;;;;;;;;;;;13.24;57.29;95971.78;5035023;28;1048;-50
2022/12/29 12:52:50;;;;;;;;;;;;;;;13.31;56.55;95968.47;5034606;28;1036;-50
2022/12/29 12:55:16;;;;;;;;;;;;;;;13.38;55.73;95965.00;5034658;28;1028;-50
2022/12/29 12:58:01;;;;;;;;;;;;;;;13.41;55.63;95969.19;5034641;28;1042;-49
2022/12/29 13:00:32;;;;;;;;;;;;;;;13.23;56.04;95972.75;5034700;28;962;-50
2022/12/29 13:03:17;;;;;;;;;;;;;;;13.22;56.49;95960.34;5034752;28;1032;-49
2022/12/29 13:06:16;;;;;;;;;;;;;;;13.09;55.81;95965.28;5034541;28;981;-49
2022/12/29 13:08:57;;;;;;;;;;;;;;;13.04;56.55;95964.91;5022418;28;1424;-49
2022/12/29 13:11:42;;;;;;;;;;;;;;;13.22;56.89;95959.47;5034309;28;1036;-49
2022/12/29 13:14:14;;;;;;;;;;;;;;;13.31;57.08;95957.75;5016702;28;2367;-50
2022/12/29 13:17:00;;;;;;;;;;;;;;;13.27;56.30;95957.19;5034217;28;1011;-50
2022/12/29 13:19:43;;;;;;;;;;;;;;;13.03;55.63;95956.03;5034159;28;1103;-50
2022/12/29 13:22:10;;;;;;;;;;;;;;;12.91;56.04;95954.56;5016818;28;1083;-50
2022/12/29 13:24:40;;;;;;;;;;;;;;;12.91;55.96;95959.09;5034125;28;1036;-50
2022/12/29 13:27:06;;;;;;;;;;;;;;;12.92;56.67;95967.00;5034281;28;1513;-50
2022/12/29 13:29:32;;;;;;;;;;;;;;;12.94;56.09;95959.63;5034033;28;915;-50
2022/12/29 13:32:17;;;;;;;;;;;;;;;12.87;55.93;95967.47;5034053;28;1083;-49
2022/12/29 13:34:47;;;;;;;;;;;;;;;12.72;55.19;95962.81;5033925;28;1908;-50
2022/12/29 13:37:16;;;;;;;;;;;;;;;12.76;55.76;95966.88;5041947;28;1221;-50
2022/12/29 13:39:46;;;;;;;;;;;;;;;12.67;55.49;95961.44;5053427;28;1201;-50
2022/12/29 13:42:13;;;;;;;;;;;;;;;12.70;55.84;95962.97;5036127;28;1267;-49
2022/12/29 13:44:48;;;;;;;;;;;;;;;12.72;55.98;95966.31;5053790;28;1242;-49
2022/12/29 13:47:29;;;;;;;;;;;;;;;12.75;56.11;95963.34;5053743;28;1034;-49
2022/12/29 13:49:57;;;;;;;;;;;;;;;12.72;56.83;95966.31;5033780;28;1011;-49
2022/12/29 13:52:49;;;;;;;;;;;;;;;12.77;56.32;95964.03;5033615;28;1046;-48